Time;durP1;ratioP1;P1;durP2;ratioP2;P2;SDS_P1;SDS_P2;PMS_P1;PMS_P2;Temp;Humidity;BMP_temperature;BMP_pressure;BME280_temperature;BME280_humidity;BME280_pressure;Samples;Min_cycle;Max_cycle;Signal;HPM_P1;HPM_P2
2022/11/19 00:03:56;;;;;;;0.10;0.10;;;;;;;-4.48;100.00;101457.34;10388763;28;20475;-80
2022/11/19 00:08:57;;;;;;;0.20;0.20;;;;;;;-4.43;100.00;101454.59;10390643;28;20131;-79
2022/11/19 00:13:57;;;;;;;0.20;0.20;;;;;;;-4.44;100.00;101453.75;10386399;28;20100;-79
2022/11/19 00:18:57;;;;;;;0.15;0.15;;;;;;;-4.47;100.00;101450.41;10378201;28;20275;-79
2022/11/19 00:23:58;;;;;;;0.15;0.15;;;;;;;-4.43;100.00;101458.03;10392889;28;20455;-79
2022/11/19 00:28:58;;;;;;;0.20;0.20;;;;;;;-4.56;100.00;101452.38;10399616;28;20117;-79
2022/11/19 00:33:59;;;;;;;0.10;0.10;;;;;;;-4.64;100.00;101448.31;10371123;28;20021;-79
2022/11/19 00:38:59;;;;;;;0.20;0.20;;;;;;;-4.67;100.00;101464.84;10384982;28;20036;-77
2022/11/19 00:43:59;;;;;;;0.10;0.10;;;;;;;-4.66;100.00;101465.69;10370580;28;20022;-80
2022/11/19 00:49:00;;;;;;;0.05;0.05;;;;;;;-4.74;100.00;101476.34;10403194;28;20021;-79
2022/11/19 00:54:00;;;;;;;0.10;0.10;;;;;;;-4.83;100.00;101487.88;10406414;28;20017;-79
2022/11/19 00:59:00;;;;;;;0.20;0.20;;;;;;;-4.95;100.00;101495.16;10378203;28;20145;-81
2022/11/19 01:04:00;;;;;;;0.10;0.10;;;;;;;-5.08;100.00;101497.25;10403375;28;20795;-79
2022/11/19 01:09:01;;;;;;;0.15;0.15;;;;;;;-5.17;100.00;101497.50;10394707;28;20352;-80
2022/11/19 01:14:03;;;;;;;0.10;0.10;;;;;;;-5.26;100.00;101501.22;10382901;28;20451;-80
2022/11/19 01:19:05;;;;;;;0.10;0.10;;;;;;;-5.40;100.00;101496.38;10393880;28;20790;-79
2022/11/19 01:24:06;;;;;;;0.10;0.10;;;;;;;-5.43;100.00;101506.00;10390174;28;20028;-79
2022/11/19 01:29:06;;;;;;;0.10;0.10;;;;;;;-5.48;100.00;101500.91;10381110;28;20024;-80
2022/11/19 01:34:06;;;;;;;0.10;0.10;;;;;;;-5.60;100.00;101503.84;10396277;28;20028;-79
2022/11/19 01:39:07;;;;;;;0.10;0.10;;;;;;;-5.56;100.00;101505.44;10377264;28;20662;-80
2022/11/19 01:44:27;;;;;;;0.10;0.10;;;;;;;-5.66;100.00;101509.19;10384243;28;20026;-78
2022/11/19 01:49:27;;;;;;;0.25;0.25;;;;;;;-5.69;100.00;101505.78;10368298;28;20064;-79
2022/11/19 01:54:42;;;;;;;0.20;0.20;;;;;;;-5.51;100.00;101509.63;10366680;28;20116;-79
2022/11/19 01:59:45;;;;;;;0.20;0.20;;;;;;;-5.49;100.00;101502.66;10370859;28;20276;-79
2022/11/19 02:04:50;;;;;;;0.10;0.10;;;;;;;-5.58;100.00;101521.09;10397940;28;20516;-79
2022/11/19 02:09:50;;;;;;;0.20;0.20;;;;;;;-5.66;100.00;101533.41;10381014;28;20014;-80
2022/11/19 02:14:57;;;;;;;0.20;0.20;;;;;;;-5.70;100.00;101532.63;10393028;28;20036;-80
2022/11/19 02:20:19;;;;;;;0.15;0.15;;;;;;;-5.79;100.00;101539.78;10397988;28;20230;-80
2022/11/19 02:25:52;;;;;;;0.15;0.15;;;;;;;-5.84;100.00;101541.66;10392477;28;20017;-80
2022/11/19 02:31:03;;;;;;;0.20;0.20;;;;;;;-5.94;100.00;101534.09;10339804;28;20560;-80
2022/11/19 02:36:28;;;;;;;0.17;0.17;;;;;;;-5.87;100.00;101545.16;10386665;28;20049;-78
2022/11/19 02:41:35;;;;;;;0.20;0.20;;;;;;;-5.87;100.00;101545.16;10388412;28;20091;-80
2022/11/19 02:46:35;;;;;;;0.20;0.20;;;;;;;-5.76;100.00;101557.84;10365457;28;20461;-80
2022/11/19 02:51:36;;;;;;;0.20;0.20;;;;;;;-5.62;100.00;101555.78;10394445;28;20050;-78
2022/11/19 02:56:51;;;;;;;0.10;0.10;;;;;;;-5.56;100.00;101560.81;10403892;28;20068;-79
2022/11/19 03:07:16;;;;;;;0.20;0.20;;;;;;;-5.70;100.00;101552.53;10398445;28;20025;-77
2022/11/19 03:12:39;;;;;;;0.17;0.17;;;;;;;-5.75;100.00;101544.84;10393871;28;20014;-77
2022/11/19 03:17:57;;;;;;;0.20;0.20;;;;;;;-5.84;100.00;101552.03;10391298;28;20040;-79
2022/11/19 03:23:04;;;;;;;0.10;0.10;;;;;;;-5.87;100.00;101547.75;10390826;28;20018;-79
2022/11/19 03:28:11;;;;;;;0.15;0.15;;;;;;;-5.83;100.00;101541.59;10366811;28;20024;-80
2022/11/19 03:33:20;;;;;;;0.10;0.10;;;;;;;-5.79;100.00;101550.16;10377346;28;20026;-79
2022/11/19 03:38:28;;;;;;;0.10;0.10;;;;;;;-5.81;100.00;101536.38;10376111;28;20504;-77
2022/11/19 03:43:33;;;;;;;0.15;0.15;;;;;;;-5.91;100.00;101549.53;10368739;28;20018;-79
2022/11/19 03:48:35;;;;;;;0.17;0.17;;;;;;;-5.95;100.00;101554.91;10390669;28;20044;-78
2022/11/19 03:53:36;;;;;;;0.15;0.15;;;;;;;-5.96;100.00;101556.66;10395405;28;20022;-79
2022/11/19 03:58:42;;;;;;;0.10;0.10;;;;;;;-5.95;100.00;101560.94;10392398;28;20415;-79
2022/11/19 04:04:34;;;;;;;0.20;0.20;;;;;;;-5.93;100.00;101561.72;10379940;28;20118;-79
2022/11/19 04:09:03;;;;;;;0.20;0.20;;;;;;;-5.93;100.00;101563.50;10397842;28;20032;-79
2022/11/19 04:14:03;;;;;;;0.10;0.10;;;;;;;-5.87;100.00;101578.03;10377059;28;20056;-79
2022/11/19 04:19:03;;;;;;;0.20;0.20;;;;;;;-5.89;100.00;101575.47;10370051;28;20022;-78
2022/11/19 04:24:04;;;;;;;0.10;0.10;;;;;;;-5.96;100.00;101572.22;10415214;28;20263;-78
2022/11/19 04:29:04;;;;;;;0.10;0.10;;;;;;;-5.84;100.00;101589.19;10390846;28;20265;-80
2022/11/19 04:34:05;;;;;;;0.10;0.10;;;;;;;-5.86;100.00;101577.16;10385773;28;20022;-79
2022/11/19 04:39:05;;;;;;;0.20;0.20;;;;;;;-5.82;100.00;101581.34;10382787;28;20675;-80
2022/11/19 04:44:06;;;;;;;0.20;0.20;;;;;;;-5.85;100.00;101582.28;10407981;28;20025;-79
2022/11/19 04:49:06;;;;;;;0.15;0.15;;;;;;;-5.79;100.00;101571.78;10407386;28;20040;-79
2022/11/19 04:54:07;;;;;;;0.20;0.20;;;;;;;-5.69;100.00;101575.84;10408507;28;20026;-80
2022/11/19 04:59:07;;;;;;;0.20;0.20;;;;;;;-5.67;100.00;101562.84;10379187;28;20366;-80
2022/11/19 05:04:08;;;;;;;0.30;0.30;;;;;;;-5.54;100.00;101582.41;10410055;28;20137;-80
2022/11/19 05:09:09;;;;;;;0.10;0.10;;;;;;;-5.33;100.00;101583.59;10382158;28;20018;-80
2022/11/19 05:14:09;;;;;;;0.20;0.20;;;;;;;-5.08;100.00;101594.22;10412216;28;20026;-80
2022/11/19 05:19:10;;;;;;;0.10;0.10;;;;;;;-4.88;100.00;101577.25;10394061;28;20040;-80
2022/11/19 05:24:10;;;;;;;0.20;0.20;;;;;;;-4.69;100.00;101585.38;10415018;28;20413;-80
2022/11/19 05:29:11;;;;;;;0.13;0.13;;;;;;;-4.63;100.00;101561.78;10414038;28;20208;-80
2022/11/19 05:34:11;;;;;;;0.20;0.20;;;;;;;-4.65;100.00;101556.66;10379845;28;20025;-80
2022/11/19 05:39:11;;;;;;;0.13;0.13;;;;;;;-4.60;100.00;101561.69;10361550;28;20049;-79
2022/11/19 05:44:11;;;;;;;0.20;0.20;;;;;;;-4.52;100.00;101577.94;10363495;28;20484;-80
2022/11/19 05:49:12;;;;;;;0.10;0.10;;;;;;;-4.51;100.00;101566.63;10392720;28;20798;-79
2022/11/19 05:54:12;;;;;;;0.10;0.10;;;;;;;-4.45;100.00;101584.69;10367980;28;20289;-80
2022/11/19 05:59:12;;;;;;;0.20;0.20;;;;;;;-4.40;100.00;101579.34;10390368;28;20028;-80
2022/11/19 06:04:13;;;;;;;0.20;0.20;;;;;;;-4.49;100.00;101582.19;10398365;28;20018;-79
2022/11/19 06:09:13;;;;;;;0.10;0.10;;;;;;;-4.55;100.00;101588.44;10408032;28;20025;-78
2022/11/19 06:14:15;;;;;;;0.15;0.15;;;;;;;-4.60;100.00;101578.16;10402635;28;20064;-79
2022/11/19 06:19:19;;;;;;;0.13;0.13;;;;;;;-4.63;100.00;101577.41;10407441;28;20118;-79
2022/11/19 06:24:19;;;;;;;0.20;0.20;;;;;;;-4.69;100.00;101583.63;10378758;28;20058;-78
2022/11/19 06:29:20;;;;;;;0.00;0.00;;;;;;;-4.76;100.00;101589.91;10410595;28;20029;-78
2022/11/19 06:34:20;;;;;;;0.10;0.10;;;;;;;-4.67;100.00;101586.19;10384183;28;20028;-80
2022/11/19 06:39:20;;;;;;;0.10;0.10;;;;;;;-4.60;100.00;101585.94;10400792;28;20029;-79
2022/11/19 06:44:20;;;;;;;0.20;0.20;;;;;;;-4.57;100.00;101591.09;10393619;28;20252;-79
2022/11/19 06:49:21;;;;;;;0.08;0.08;;;;;;;-4.52;100.00;101590.94;10413694;28;20026;-78
2022/11/19 06:54:21;;;;;;;0.10;0.10;;;;;;;-4.44;100.00;101596.78;10374611;28;20060;-78
2022/11/19 06:59:21;;;;;;;0.10;0.10;;;;;;;-4.42;100.00;101587.19;10365160;28;20036;-77
2022/11/19 07:04:21;;;;;;;0.20;0.20;;;;;;;-4.26;100.00;101592.78;10398676;28;20252;-78
2022/11/19 07:09:22;;;;;;;0.20;0.20;;;;;;;-4.14;100.00;101587.19;10356650;28;20141;-78
2022/11/19 07:14:22;;;;;;;0.10;0.10;;;;;;;-4.10;100.00;101594.03;10395161;28;20290;-78
2022/11/19 07:19:23;;;;;;;0.10;0.10;;;;;;;-4.04;100.00;101586.91;10398234;28;20346;-79
2022/11/19 07:24:23;;;;;;;0.10;0.10;;;;;;;-3.92;100.00;101589.16;10402991;28;20027;-79
2022/11/19 07:29:23;;;;;;;0.10;0.10;;;;;;;-3.74;100.00;101591.19;10414515;28;20264;-79
2022/11/19 07:34:24;;;;;;;0.13;0.13;;;;;;;-3.61;100.00;101598.59;10368068;28;20034;-78
2022/11/19 07:39:24;;;;;;;0.10;0.10;;;;;;;-3.49;100.00;101592.97;10393676;28;20029;-78
2022/11/19 07:44:24;;;;;;;0.20;0.20;;;;;;;-3.31;100.00;101600.19;10419434;28;20592;-79
2022/11/19 07:49:25;;;;;;;0.10;0.10;;;;;;;-3.08;100.00;101590.75;10400702;28;20022;-77
2022/11/19 07:54:26;;;;;;;0.10;0.10;;;;;;;-2.30;100.00;101601.81;10398609;28;20025;-79
2022/11/19 07:59:26;;;;;;;0.10;0.10;;;;;;;-1.89;100.00;101591.53;10384181;28;20067;-79
2022/11/19 08:04:27;;;;;;;0.10;0.10;;;;;;;-1.44;100.00;101595.81;10408734;28;20022;-77
2022/11/19 08:09:28;;;;;;;0.00;0.00;;;;;;;-1.00;100.00;101593.06;10365907;28;20025;-78
2022/11/19 08:14:28;;;;;;;0.10;0.10;;;;;;;-0.55;100.00;101586.75;10362685;28;20145;-77
2022/11/19 08:19:28;;;;;;;0.10;0.10;;;;;;;-0.19;100.00;101575.50;10367762;28;20037;-77
2022/11/19 08:24:28;;;;;;;0.00;0.00;;;;;;;0.15;100.00;101579.16;10419573;28;20500;-78
2022/11/19 08:29:29;;;;;;;0.00;0.00;;;;;;;0.47;100.00;101568.84;10419224;28;20052;-78
2022/11/19 08:34:31;;;;;;;0.10;0.10;;;;;;;0.85;100.00;101580.91;10376597;28;20030;-78
2022/11/19 08:39:31;;;;;;;0.00;0.00;;;;;;;0.96;100.00;101589.97;10390949;28;20326;-76
2022/11/19 08:44:31;;;;;;;0.00;0.00;;;;;;;1.02;100.00;101585.28;10412500;28;20116;-76
2022/11/19 08:49:32;;;;;;;0.00;0.00;;;;;;;1.12;100.00;101583.88;10392084;28;20048;-75
2022/11/19 08:54:32;;;;;;;0.00;0.00;;;;;;;1.12;100.00;101585.66;10393135;28;20292;-76
2022/11/19 08:59:32;;;;;;;0.00;0.00;;;;;;;0.85;100.00;101594.00;10415546;28;20040;-76
2022/11/19 09:04:32;;;;;;;0.00;0.00;;;;;;;0.87;100.00;101594.78;10413626;28;20384;-77
2022/11/19 09:09:33;;;;;;;0.00;0.00;;;;;;;1.02;100.00;101597.53;10401121;28;20036;-77
2022/11/19 09:14:33;;;;;;;0.00;0.00;;;;;;;1.26;100.00;101601.53;10415695;28;20155;-75
2022/11/19 09:19:33;;;;;;;0.00;0.00;;;;;;;1.42;100.00;101593.69;10411253;28;20060;-76
2022/11/19 09:24:34;;;;;;;0.00;0.00;;;;;;;1.46;100.00;101597.00;10410946;28;20108;-76
2022/11/19 09:29:34;;;;;;;0.00;0.00;;;;;;;1.45;100.00;101593.50;10413192;28;20037;-77
2022/11/19 09:34:36;;;;;;;0.00;0.00;;;;;;;1.57;100.00;101587.63;10408269;28;20028;-76
2022/11/19 09:39:37;;;;;;;0.00;0.00;;;;;;;1.81;100.00;101595.94;10392309;28;20029;-76
2022/11/19 09:45:18;;;;;;;0.00;0.00;;;;;;;1.62;100.00;101592.63;10410531;28;20408;-75
2022/11/19 09:50:22;;;;;;;0.00;0.00;;;;;;;1.64;100.00;101601.28;10355036;28;20529;-76
2022/11/19 09:55:32;;;;;;;0.00;0.00;;;;;;;1.75;100.00;101605.97;10392594;28;20034;-76
2022/11/19 10:00:32;;;;;;;0.00;0.00;;;;;;;1.54;100.00;101600.94;10385088;28;20112;-76
2022/11/19 10:05:48;;;;;;;0.00;0.00;;;;;;;1.46;100.00;101599.63;10397635;28;20089;-76
2022/11/19 10:11:05;;;;;;;0.00;0.00;;;;;;;1.46;100.00;101602.28;10387666;28;20040;-76
2022/11/19 10:16:31;;;;;;;0.00;0.00;;;;;;;1.52;100.00;101594.06;10389269;28;20052;-77
2022/11/19 10:22:07;;;;;;;0.00;0.00;;;;;;;1.63;100.00;101580.34;10390464;28;20066;-77
2022/11/19 10:27:17;;;;;;;0.00;0.00;;;;;;;1.67;100.00;101577.47;10393669;28;20021;-77
2022/11/19 10:32:22;;;;;;;0.00;0.00;;;;;;;1.84;100.00;101573.94;10375373;28;20022;-77
2022/11/19 10:37:25;;;;;;;0.00;0.00;;;;;;;2.03;100.00;101568.47;10410477;28;20032;-77
2022/11/19 10:42:37;;;;;;;0.00;0.00;;;;;;;2.06;100.00;101565.69;10398322;28;20068;-77
2022/11/19 10:47:47;;;;;;;0.00;0.00;;;;;;;2.08;100.00;101550.69;10376009;28;20021;-77
2022/11/19 10:53:23;;;;;;;0.00;0.00;;;;;;;2.18;100.00;101551.88;10389283;28;20096;-76
2022/11/19 10:58:29;;;;;;;0.00;0.00;;;;;;;2.21;100.00;101546.44;10337917;28;20033;-77
2022/11/19 11:03:53;;;;;;;0.00;0.00;;;;;;;2.26;100.00;101549.63;10394662;28;20040;-76
2022/11/19 11:08:55;;;;;;;0.00;0.00;;;;;;;2.37;100.00;101542.91;10381783;28;20025;-76
2022/11/19 11:19:20;;;;;;;0.00;0.00;;;;;;;2.58;100.00;101525.88;10375771;28;20026;-77
2022/11/19 11:24:28;;;;;;;0.00;0.00;;;;;;;2.68;100.00;101515.69;10397490;28;20017;-77
2022/11/19 11:29:28;;;;;;;0.00;0.00;;;;;;;2.87;100.00;101510.13;10388572;28;20112;-76
2022/11/19 11:34:34;;;;;;;0.00;0.00;;;;;;;3.00;100.00;101499.75;10372400;28;20038;-75
2022/11/19 11:39:43;;;;;;;0.00;0.00;;;;;;;3.08;100.00;101487.75;10376895;28;20470;-75
2022/11/19 11:44:55;;;;;;;0.00;0.00;;;;;;;3.05;100.00;101484.47;10414348;28;20435;-76
2022/11/19 11:50:26;;;;;;;0.00;0.00;;;;;;;2.99;100.00;101490.13;10383055;28;20021;-76
2022/11/19 11:55:26;;;;;;;0.00;0.00;;;;;;;2.88;100.00;101485.50;10396625;28;20041;-74
2022/11/19 12:00:27;;;;;;;0.00;0.00;;;;;;;2.86;100.00;101479.53;10414669;28;20079;-74
2022/11/19 12:05:37;;;;;;;0.00;0.00;;;;;;;2.82;100.00;101467.47;10415598;28;20025;-75
2022/11/19 12:11:03;;;;;;;0.00;0.00;;;;;;;2.76;100.00;101473.09;10396985;28;20507;-75
2022/11/19 12:16:25;;;;;;;0.00;0.00;;;;;;;2.68;100.00;101473.59;10413643;28;20079;-76
2022/11/19 12:21:44;;;;;;;0.00;0.00;;;;;;;2.64;100.00;101469.44;10394776;28;20092;-74
2022/11/19 12:27:06;;;;;;;0.00;0.00;;;;;;;2.64;100.00;101462.38;10373029;28;20396;-75
2022/11/19 12:32:24;;;;;;;0.00;0.00;;;;;;;2.69;100.00;101457.69;10371056;28;20020;-75
2022/11/19 12:37:39;;;;;;;0.00;0.00;;;;;;;2.81;100.00;101452.63;10372209;28;20048;-76
2022/11/19 12:43:00;;;;;;;0.00;0.00;;;;;;;3.03;100.00;101449.53;10371884;28;20493;-75
2022/11/19 12:48:30;;;;;;;0.00;0.00;;;;;;;3.13;100.00;101454.13;10360036;28;20120;-75
2022/11/19 12:53:48;;;;;;;0.00;0.00;;;;;;;3.18;100.00;101453.84;10398401;28;20041;-75
2022/11/19 12:58:54;;;;;;;0.00;0.00;;;;;;;3.09;100.00;101457.88;10394482;28;20017;-74
2022/11/19 13:04:03;;;;;;;0.00;0.00;;;;;;;3.07;100.00;101459.75;10412835;28;20100;-74
2022/11/19 13:09:14;;;;;;;0.00;0.00;;;;;;;3.05;100.00;101466.91;10411275;28;20079;-75
2022/11/19 13:14:17;;;;;;;0.00;0.00;;;;;;;3.03;100.00;101460.91;10411592;28;20025;-75
2022/11/19 13:19:32;;;;;;;0.00;0.00;;;;;;;2.94;100.00;101464.94;10402265;28;20456;-74
2022/11/19 13:24:44;;;;;;;0.00;0.00;;;;;;;2.81;100.00;101452.63;10398266;28;20022;-76
2022/11/19 13:29:52;;;;;;;0.00;0.00;;;;;;;2.62;100.00;101455.56;10410711;28;20027;-75
2022/11/19 13:35:04;;;;;;;0.00;0.00;;;;;;;2.47;100.00;101446.75;10409813;28;20416;-75
2022/11/19 13:40:15;;;;;;;0.00;0.00;;;;;;;2.35;100.00;101444.88;10410107;28;20028;-75
2022/11/19 13:45:16;;;;;;;0.00;0.00;;;;;;;2.28;100.00;101440.94;10410959;28;20025;-76
2022/11/19 13:50:49;;;;;;;0.00;0.00;;;;;;;2.23;100.00;101426.25;10404047;28;20022;-77
2022/11/19 13:55:55;;;;;;;0.00;0.00;;;;;;;2.20;100.00;101426.44;10353853;28;20088;-76
2022/11/19 14:01:32;;;;;;;0.00;0.00;;;;;;;2.18;100.00;101427.47;10399473;28;20048;-76
2022/11/19 14:06:51;;;;;;;0.00;0.00;;;;;;;2.18;100.00;101432.72;10409746;28;20079;-76
2022/11/19 14:12:28;;;;;;;0.00;0.00;;;;;;;2.15;100.00;101428.53;10408766;28;20072;-77
2022/11/19 14:28:44;;;;;;;0.00;0.00;;;;;;;1.98;100.00;101426.03;10411298;28;20472;-77
2022/11/19 14:33:47;;;;;;;0.00;0.00;;;;;;;1.91;100.00;101422.88;10400582;28;20026;-76
2022/11/19 14:44:11;;;;;;;0.10;0.10;;;;;;;1.74;100.00;101418.59;10395686;28;20513;-78
2022/11/19 14:49:23;;;;;;;0.00;0.00;;;;;;;1.63;100.00;101420.13;10375283;28;20032;-78
2022/11/19 14:54:35;;;;;;;0.00;0.00;;;;;;;1.52;100.00;101418.16;10408491;28;20033;-78
2022/11/19 14:59:37;;;;;;;0.00;0.00;;;;;;;1.39;100.00;101417.13;10372382;28;20397;-78
2022/11/19 15:05:24;;;;;;;0.00;0.00;;;;;;;1.24;100.00;101409.16;10382372;28;20388;-78
2022/11/19 15:10:30;;;;;;;0.00;0.00;;;;;;;1.09;100.00;101396.91;10409136;28;20037;-76
2022/11/19 15:15:41;;;;;;;0.00;0.00;;;;;;;0.94;100.00;101395.97;10412288;28;20117;-77
2022/11/19 15:20:50;;;;;;;0.00;0.00;;;;;;;0.80;100.00;101391.47;10412340;28;20503;-78
2022/11/19 15:26:35;;;;;;;0.00;0.00;;;;;;;0.65;100.00;101381.78;10411265;28;20464;-78
2022/11/19 15:32:01;;;;;;;0.00;0.00;;;;;;;0.61;100.00;101390.72;10410084;28;20506;-76
2022/11/19 15:37:12;;;;;;;0.00;0.00;;;;;;;0.58;100.00;101383.91;10396958;28;20444;-77
2022/11/19 15:42:17;;;;;;;0.00;0.00;;;;;;;0.53;100.00;101377.22;10371752;28;20411;-77
2022/11/19 15:47:27;;;;;;;0.00;0.00;;;;;;;0.47;100.00;101367.03;10409438;28;20072;-77
2022/11/19 15:52:30;;;;;;;0.00;0.00;;;;;;;0.40;100.00;101358.66;10392640;28;20114;-76
2022/11/19 15:57:31;;;;;;;0.00;0.00;;;;;;;0.39;100.00;101355.19;10386847;28;20114;-77
2022/11/19 16:02:36;;;;;;;0.00;0.00;;;;;;;0.36;100.00;101349.25;10379237;28;20472;-77
2022/11/19 16:07:36;;;;;;;0.00;0.00;;;;;;;0.34;100.00;101341.47;10384069;28;20264;-76
2022/11/19 16:18:15;;;;;;;0.00;0.00;;;;;;;0.20;100.00;101342.22;10393594;28;20268;-76
2022/11/19 16:23:19;;;;;;;0.00;0.00;;;;;;;0.12;100.00;101343.53;10400762;28;20526;-78
2022/11/19 16:28:26;;;;;;;0.03;0.03;;;;;;;0.08;100.00;101336.75;10394225;28;20055;-77
2022/11/19 16:33:29;;;;;;;0.00;0.00;;;;;;;0.05;100.00;101329.88;10380765;28;20076;-77
2022/11/19 16:38:29;;;;;;;0.00;0.00;;;;;;;0.05;100.00;101329.03;10407100;28;20026;-77
2022/11/19 16:43:29;;;;;;;0.17;0.17;;;;;;;0.05;100.00;101318.56;10398617;28;20033;-77
2022/11/19 16:48:48;;;;;;;0.00;0.00;;;;;;;0.06;100.00;101328.97;10385518;28;20030;-77
2022/11/19 16:53:48;;;;;;;0.00;0.00;;;;;;;0.06;100.00;101325.50;10395036;28;20117;-77
2022/11/19 16:58:55;;;;;;;0.00;0.00;;;;;;;0.08;100.00;101326.25;10389509;28;20444;-77
2022/11/19 17:04:00;;;;;;;0.00;0.00;;;;;;;0.12;100.00;101325.19;10394708;28;20344;-76
2022/11/19 17:09:01;;;;;;;0.10;0.10;;;;;;;0.12;100.00;101322.56;10386073;28;20028;-76
2022/11/19 17:14:16;;;;;;;0.00;0.00;;;;;;;0.09;100.00;101314.84;10392521;28;20036;-76
2022/11/19 17:19:33;;;;;;;0.00;0.00;;;;;;;0.04;100.00;101309.88;10398619;28;20470;-75
2022/11/19 17:24:40;;;;;;;0.00;0.00;;;;;;;0.01;100.00;101315.28;10389984;28;20079;-77
2022/11/19 17:29:44;;;;;;;0.00;0.00;;;;;;;-0.07;100.00;101317.44;10389843;28;20072;-76
2022/11/19 17:34:48;;;;;;;0.05;0.05;;;;;;;-0.13;100.00;101322.97;10381190;28;20017;-76
2022/11/19 17:39:48;;;;;;;0.00;0.00;;;;;;;-0.16;100.00;101325.75;10399171;28;20091;-76
2022/11/19 17:44:48;;;;;;;0.08;0.08;;;;;;;-0.23;100.00;101327.84;10391206;28;20037;-76
2022/11/19 17:49:49;;;;;;;0.00;0.00;;;;;;;-0.28;100.00;101322.00;10392961;28;20025;-76
2022/11/19 17:54:52;;;;;;;0.10;0.10;;;;;;;-0.31;100.00;101323.00;10398434;28;20025;-76
2022/11/19 17:59:52;;;;;;;0.10;0.10;;;;;;;-0.35;100.00;101324.09;10382292;28;20108;-76
2022/11/19 18:04:53;;;;;;;0.10;0.10;;;;;;;-0.37;100.00;101320.69;10389380;28;20156;-76
2022/11/19 18:09:53;;;;;;;0.00;0.00;;;;;;;-0.34;100.00;101310.06;10401375;28;20029;-77
2022/11/19 18:14:53;;;;;;;0.00;0.00;;;;;;;-0.28;100.00;101312.38;10398323;28;20100;-76
2022/11/19 18:19:53;;;;;;;0.00;0.00;;;;;;;-0.26;100.00;101309.69;10393761;28;20022;-76
2022/11/19 18:24:55;;;;;;;0.08;0.08;;;;;;;-0.28;100.00;101316.75;10394812;28;20024;-77
2022/11/19 18:29:56;;;;;;;0.10;0.10;;;;;;;-0.26;100.00;101314.91;10384144;28;20499;-76
2022/11/19 18:34:56;;;;;;;0.08;0.08;;;;;;;-0.25;100.00;101314.81;10390409;28;20022;-76
2022/11/19 18:39:56;;;;;;;0.00;0.00;;;;;;;-0.21;100.00;101323.38;10404560;28;20022;-76
2022/11/19 18:44:56;;;;;;;0.00;0.00;;;;;;;-0.20;100.00;101314.59;10386950;28;20257;-76
2022/11/19 18:49:57;;;;;;;0.00;0.00;;;;;;;-0.17;100.00;101324.91;10386052;28;20380;-76
2022/11/19 18:54:57;;;;;;;0.00;0.00;;;;;;;-0.16;100.00;101326.59;10387884;28;20014;-76
2022/11/19 18:59:57;;;;;;;0.05;0.05;;;;;;;-0.14;100.00;101332.63;10391822;28;20021;-76
2022/11/19 19:04:57;;;;;;;0.00;0.00;;;;;;;-0.13;100.00;101328.22;10387427;28;20516;-76
2022/11/19 19:09:58;;;;;;;0.00;0.00;;;;;;;-0.16;100.00;101323.16;10387102;28;20483;-76
2022/11/19 19:14:58;;;;;;;0.05;0.05;;;;;;;-0.21;100.00;101325.13;10384288;28;20105;-76
2022/11/19 19:19:58;;;;;;;0.00;0.00;;;;;;;-0.26;100.00;101323.63;10390166;28;20030;-76
2022/11/19 19:24:59;;;;;;;0.10;0.10;;;;;;;-0.22;100.00;101331.31;10392286;28;20256;-76
2022/11/19 19:29:59;;;;;;;0.10;0.10;;;;;;;-0.17;100.00;101334.56;10395060;28;20858;-76
2022/11/19 19:35:00;;;;;;;0.00;0.00;;;;;;;-0.15;100.00;101338.75;10389229;28;20054;-76
2022/11/19 19:40:00;;;;;;;0.00;0.00;;;;;;;-0.15;100.00;101330.06;10387213;28;20101;-76
2022/11/19 19:45:00;;;;;;;0.00;0.00;;;;;;;-0.16;100.00;101329.22;10397190;28;20020;-76
2022/11/19 19:50:01;;;;;;;0.00;0.00;;;;;;;-0.16;100.00;101328.38;10388387;28;20072;-76
2022/11/19 19:55:01;;;;;;;0.00;0.00;;;;;;;-0.18;100.00;101323.19;10391083;28;20017;-76
2022/11/19 20:00:02;;;;;;;0.00;0.00;;;;;;;-0.23;100.00;101330.47;10395301;28;20037;-76
2022/11/19 20:05:03;;;;;;;0.00;0.00;;;;;;;-0.27;100.00;101321.06;10397898;28;20036;-76
2022/11/19 20:10:04;;;;;;;0.00;0.00;;;;;;;-0.34;100.00;101310.06;10397968;28;20076;-76
2022/11/19 20:15:04;;;;;;;0.00;0.00;;;;;;;-0.37;100.00;101312.00;10395972;28;20026;-76
2022/11/19 20:20:05;;;;;;;0.00;0.00;;;;;;;-0.35;100.00;101313.63;10393730;28;20109;-76
2022/11/19 20:25:06;;;;;;;0.00;0.00;;;;;;;-0.35;100.00;101313.63;10399430;28;20010;-76
2022/11/19 20:30:07;;;;;;;0.00;0.00;;;;;;;-0.32;100.00;101305.59;10395440;28;20024;-76
2022/11/19 20:35:07;;;;;;;0.00;0.00;;;;;;;-0.28;100.00;101304.50;10397392;28;20389;-76
2022/11/19 20:40:09;;;;;;;0.00;0.00;;;;;;;-0.23;100.00;101296.44;10404980;22;20080;-77
2022/11/19 20:45:09;;;;;;;0.10;0.10;;;;;;;-0.20;100.00;101295.41;10395677;28;20061;-77
2022/11/19 20:50:09;;;;;;;0.00;0.00;;;;;;;-0.17;100.00;101292.66;10396136;28;20061;-77
2022/11/19 20:55:10;;;;;;;0.00;0.00;;;;;;;-0.09;100.00;101295.69;10390081;28;20391;-76
2022/11/19 21:00:11;;;;;;;0.00;0.00;;;;;;;-0.04;100.00;101286.69;10398496;28;20021;-77
2022/11/19 21:05:11;;;;;;;0.10;0.10;;;;;;;-0.11;100.00;101269.63;10410440;28;20022;-79
2022/11/19 21:10:11;;;;;;;0.00;0.00;;;;;;;-0.11;100.00;101281.88;10385505;28;20451;-79
2022/11/19 21:15:12;;;;;;;0.10;0.10;;;;;;;-0.13;100.00;101273.22;10371057;28;20026;-79
2022/11/19 21:20:12;;;;;;;0.00;0.00;;;;;;;-0.20;100.00;101264.84;10370984;28;20547;-79
2022/11/19 21:25:13;;;;;;;0.10;0.10;;;;;;;-0.25;100.00;101262.47;10400667;28;20265;-79
2022/11/19 21:30:14;;;;;;;0.00;0.00;;;;;;;-0.25;100.00;101272.09;10409352;28;20029;-79
2022/11/19 21:35:14;;;;;;;0.10;0.10;;;;;;;-0.29;100.00;101268.78;10410856;28;20116;-79
2022/11/19 21:40:14;;;;;;;0.00;0.00;;;;;;;-0.26;100.00;101259.94;10411799;28;20029;-79
2022/11/19 21:45:15;;;;;;;0.10;0.10;;;;;;;-0.17;100.00;101253.38;10410044;28;20343;-79
2022/11/19 21:50:15;;;;;;;0.00;0.00;;;;;;;-0.11;100.00;101246.03;10406994;28;20131;-79
2022/11/19 21:55:16;;;;;;;0.00;0.00;;;;;;;-0.01;100.00;101252.47;10370953;28;20477;-79
2022/11/19 22:00:16;;;;;;;0.05;0.05;;;;;;;0.10;100.00;101251.06;10368502;28;20378;-78
2022/11/19 22:05:16;;;;;;;0.00;0.00;;;;;;;0.19;100.00;101246.19;10370943;28;20022;-78
2022/11/19 22:10:17;;;;;;;0.00;0.00;;;;;;;0.27;100.00;101245.78;10384851;28;20036;-79
2022/11/19 22:15:18;;;;;;;0.00;0.00;;;;;;;0.23;100.00;101239.00;10417908;28;20137;-78
2022/11/19 22:20:18;;;;;;;0.10;0.10;;;;;;;0.20;100.00;101226.94;10369250;28;20018;-79
2022/11/19 22:25:18;;;;;;;0.00;0.00;;;;;;;0.26;100.00;101238.81;10392887;28;20571;-78
2022/11/19 22:30:19;;;;;;;0.10;0.10;;;;;;;0.26;100.00;101230.97;10368312;28;20022;-79
2022/11/19 22:35:19;;;;;;;0.03;0.03;;;;;;;0.28;100.00;101226.50;10368111;28;20291;-79
2022/11/19 22:40:19;;;;;;;0.00;0.00;;;;;;;0.30;100.00;101229.91;10393408;28;20026;-78
2022/11/19 22:45:19;;;;;;;0.00;0.00;;;;;;;0.30;100.00;101229.91;10407320;28;20029;-79
2022/11/19 22:50:20;;;;;;;0.00;0.00;;;;;;;0.30;100.00;101227.28;10389198;28;20067;-78
2022/11/19 22:55:20;;;;;;;0.00;0.00;;;;;;;0.29;100.00;101228.22;10420020;28;20361;-77
2022/11/19 23:00:46;;;;;;;0.00;0.00;;;;;;;0.31;100.00;101231.56;10420604;28;20031;-77
2022/11/19 23:05:52;;;;;;;0.00;0.00;;;;;;;0.31;100.00;101233.34;10400385;28;20110;-77
2022/11/19 23:11:01;;;;;;;0.00;0.00;;;;;;;0.29;100.00;101220.34;10413391;28;20032;-77
2022/11/19 23:16:05;;;;;;;0.00;0.00;;;;;;;0.29;100.00;101220.34;10389795;28;20485;-77
2022/11/19 23:21:17;;;;;;;0.00;0.00;;;;;;;0.29;100.00;101209.88;10380889;28;20025;-77
2022/11/19 23:26:21;;;;;;;0.00;0.00;;;;;;;0.29;100.00;101199.41;10362598;28;20129;-77
2022/11/19 23:31:24;;;;;;;0.00;0.00;;;;;;;0.32;100.00;101193.97;10362079;28;20026;-77
2022/11/19 23:36:30;;;;;;;0.00;0.00;;;;;;;0.32;100.00;101191.38;10399817;28;20049;-78
2022/11/19 23:41:32;;;;;;;0.00;0.00;;;;;;;0.34;100.00;101201.75;10404175;28;20087;-77
2022/11/19 23:46:34;;;;;;;0.00;0.00;;;;;;;0.36;100.00;101205.13;10386695;28;20041;-78